Time;durP1;ratioP1;P1;durP2;ratioP2;P2;SDS_P1;SDS_P2;PMS_P1;PMS_P2;Temp;Humidity;BMP_temperature;BMP_pressure;BME280_temperature;BME280_humidity;BME280_pressure;Samples;Min_cycle;Max_cycle;Signal;HPM_P1;HPM_P2
2024/02/07 00:00:30;;;;;;;7.25;4.40;;;;;;;13.46;35.51;98602.53;5050955;28;20032;-80
2024/02/07 00:02:56;;;;;;;7.78;4.63;;;;;;;13.49;35.69;98614.50;5034430;28;20025;-79
2024/02/07 00:05:21;;;;;;;5.72;4.43;;;;;;;13.45;35.70;98610.53;5050740;28;20033;-77
2024/02/07 00:07:47;;;;;;;5.97;4.25;;;;;;;13.47;35.50;98617.28;5034676;28;20411;-79
2024/02/07 00:10:12;;;;;;;6.78;4.40;;;;;;;13.42;35.67;98609.00;5034004;28;20051;-80
2024/02/07 00:12:38;;;;;;;6.57;4.50;;;;;;;13.39;35.60;98612.75;5033990;28;20041;-80
2024/02/07 00:15:04;;;;;;;5.47;4.30;;;;;;;13.44;35.57;98616.72;5017658;28;20415;-79
2024/02/07 00:17:30;;;;;;;5.50;4.07;;;;;;;13.37;35.45;98609.41;5017562;28;20037;-78
2024/02/07 00:19:56;;;;;;;8.57;4.78;;;;;;;13.41;35.59;98611.75;5034700;28;20033;-80
2024/02/07 00:22:21;;;;;;;8.18;4.13;;;;;;;13.39;35.54;98617.13;5017569;28;20033;-79
2024/02/07 00:24:47;;;;;;;6.85;4.60;;;;;;;13.36;35.47;98622.66;5050472;28;20033;-80
2024/02/07 00:27:12;;;;;;;5.82;3.88;;;;;;;13.31;35.51;98615.16;5023405;28;20123;-78
2024/02/07 00:29:38;;;;;;;7.25;4.75;;;;;;;13.32;35.43;98623.88;5024109;28;20029;-79
2024/02/07 00:32:03;;;;;;;7.72;4.13;;;;;;;13.31;35.57;98630.91;5014445;28;20503;-79
2024/02/07 00:34:29;;;;;;;8.52;4.32;;;;;;;13.26;35.37;98622.63;5041158;28;20025;-77
2024/02/07 00:36:55;;;;;;;9.68;4.93;;;;;;;13.23;35.39;98617.66;5039331;28;20032;-80
2024/02/07 00:39:20;;;;;;;6.63;4.47;;;;;;;13.27;35.44;98623.47;5008506;28;20029;-80
2024/02/07 00:41:46;;;;;;;8.48;4.30;;;;;;;13.21;35.39;98624.84;5008539;28;20036;-79
2024/02/07 00:44:11;;;;;;;5.75;4.30;;;;;;;13.23;35.70;98625.50;5010629;28;20045;-79
2024/02/07 00:46:38;;;;;;;5.25;4.03;;;;;;;13.22;35.47;98629.13;5028368;28;20465;-80
2024/02/07 00:49:03;;;;;;;7.10;4.43;;;;;;;13.20;35.40;98624.00;5026192;28;20032;-79
2024/02/07 00:51:30;;;;;;;8.25;4.47;;;;;;;13.18;35.59;98628.53;5042878;28;20021;-78
2024/02/07 00:53:56;;;;;;;5.47;3.90;;;;;;;13.15;35.68;98623.56;5043552;28;20029;-77
2024/02/07 00:56:21;;;;;;;6.15;4.00;;;;;;;13.14;35.60;98616.69;5027823;28;20036;-80
2024/02/07 00:58:47;;;;;;;6.25;4.30;;;;;;;13.13;35.44;98616.81;5025739;28;20029;-78
2024/02/07 01:01:12;;;;;;;6.85;4.40;;;;;;;13.10;35.45;98614.47;5043145;28;20393;-79
2024/02/07 01:03:38;;;;;;;5.57;3.80;;;;;;;13.06;35.24;98621.75;5001357;28;20120;-79
2024/02/07 01:06:04;;;;;;;7.28;4.18;;;;;;;12.99;35.77;98608.38;5017723;28;20044;-80
2024/02/07 01:08:30;;;;;;;6.82;4.15;;;;;;;13.02;35.47;98626.44;5017664;28;20036;-79
2024/02/07 01:10:55;;;;;;;6.90;3.88;;;;;;;12.99;35.32;98611.00;5033689;28;20102;-80
2024/02/07 01:13:21;;;;;;;5.70;4.18;;;;;;;12.96;35.49;98613.06;5017616;28;20056;-79
2024/02/07 01:15:47;;;;;;;6.15;3.88;;;;;;;12.95;35.84;98608.78;5017748;28;20049;-80
2024/02/07 01:18:13;;;;;;;5.78;4.25;;;;;;;12.93;35.61;98608.91;5001618;28;20045;-81
2024/02/07 01:20:38;;;;;;;6.20;3.90;;;;;;;12.84;35.73;98600.09;5034157;28;20029;-80
2024/02/07 01:23:04;;;;;;;5.32;3.67;;;;;;;12.86;35.51;98602.56;5001482;28;20530;-79
2024/02/07 01:25:30;;;;;;;5.50;3.97;;;;;;;12.87;35.82;98600.78;5017530;28;20452;-79
2024/02/07 01:27:55;;;;;;;7.65;4.22;;;;;;;12.83;35.78;98597.59;5017714;28;20040;-80
2024/02/07 01:30:21;;;;;;;6.72;4.28;;;;;;;12.77;35.63;98591.09;5001255;28;20026;-80
2024/02/07 01:32:46;;;;;;;6.65;4.35;;;;;;;12.76;35.86;98586.84;5000987;28;20059;-79
2024/02/07 01:35:13;;;;;;;7.80;4.18;;;;;;;12.74;35.87;98591.38;5017574;28;20091;-81
2024/02/07 01:37:38;;;;;;;6.10;4.00;;;;;;;12.75;35.67;98592.22;5017413;28;20129;-78
2024/02/07 01:40:06;;;;;;;6.53;4.15;;;;;;;12.70;35.50;98586.53;5033666;28;20116;-79
2024/02/07 01:42:32;;;;;;;5.43;4.00;;;;;;;12.69;35.69;98587.50;5000664;28;20108;-79
2024/02/07 01:45:16;;;;;;;5.35;4.30;;;;;;;12.68;35.72;98576.19;5017203;28;20030;-77
2024/02/07 01:47:41;;;;;;;5.75;4.00;;;;;;;12.66;35.79;98575.50;5035009;28;20469;-79
2024/02/07 01:50:07;;;;;;;7.55;4.00;;;;;;;12.60;35.83;98565.56;5033788;28;20152;-79
2024/02/07 01:52:36;;;;;;;6.60;4.20;;;;;;;12.62;35.90;98572.34;5016820;28;20108;-80
2024/02/07 01:55:01;;;;;;;;;;;;;;;12.61;36.05;98569.84;5017824;28;20025;-79
2024/02/07 01:57:27;;;;;;;6.18;4.25;;;;;;;12.56;36.72;98567.63;5033208;28;20288;-79
2024/02/07 01:59:52;;;;;;;6.35;4.03;;;;;;;12.57;36.59;98565.84;5017513;28;20091;-80
2024/02/07 02:02:19;;;;;;;8.43;4.13;;;;;;;12.51;36.34;98555.88;5033121;28;20026;-80
2024/02/07 02:04:45;;;;;;;6.80;4.03;;;;;;;12.54;36.16;98558.25;4999972;28;20503;-79
2024/02/07 02:07:11;;;;;;;6.43;4.10;;;;;;;12.53;36.53;98554.81;5016528;28;20034;-78
2024/02/07 02:09:36;;;;;;;6.00;3.97;;;;;;;12.52;36.57;98560.19;5000579;28;20040;-81
2024/02/07 02:12:02;;;;;;;4.93;3.67;;;;;;;12.51;36.50;98561.97;5000112;28;20485;-80
2024/02/07 02:14:27;;;;;;;6.15;4.18;;;;;;;12.50;36.08;98568.16;5033303;28;20029;-80
2024/02/07 02:16:53;;;;;;;7.95;4.25;;;;;;;12.50;36.24;98573.41;4999955;28;20029;-81
2024/02/07 02:19:19;;;;;;;4.47;3.65;;;;;;;12.45;36.52;98570.34;5000253;28;20030;-81
2024/02/07 02:22:11;;;;;;;6.30;3.83;;;;;;;12.47;36.11;98566.63;5033440;28;20032;-79
2024/02/07 02:24:45;;;;;;;6.07;3.75;;;;;;;12.42;36.47;98557.53;5016296;28;20033;-80
2024/02/07 02:27:38;;;;;;;5.47;3.80;;;;;;;12.44;36.44;98564.28;5015939;28;20025;-78
2024/02/07 02:30:12;;;;;;;4.28;3.25;;;;;;;12.38;36.40;98562.22;5019404;28;20050;-79
2024/02/07 02:32:42;;;;;;;6.53;4.07;;;;;;;12.36;36.07;98560.69;5017188;28;20040;-80
2024/02/07 02:35:08;;;;;;;5.13;3.60;;;;;;;12.38;36.40;98567.44;5016645;28;20064;-81
2024/02/07 02:37:33;;;;;;;6.40;3.70;;;;;;;12.38;36.19;98566.59;5015815;28;20509;-79
2024/02/07 02:40:00;;;;;;;5.18;3.67;;;;;;;12.37;36.31;98567.59;4999404;28;20428;-78
2024/02/07 02:42:25;;;;;;;5.10;3.45;;;;;;;12.38;36.41;98570.06;5032148;28;20488;-78
2024/02/07 02:44:51;;;;;;;6.40;3.85;;;;;;;12.37;36.25;98563.16;5015542;28;20022;-78
2024/02/07 02:47:17;;;;;;;6.75;3.50;;;;;;;12.30;36.23;98552.41;4999330;28;20088;-78
2024/02/07 02:49:42;;;;;;;4.97;3.60;;;;;;;12.34;36.28;98558.19;5015351;28;20566;-81
2024/02/07 02:52:08;;;;;;;6.38;3.78;;;;;;;12.30;36.55;98555.03;5015896;28;20071;-81
2024/02/07 02:54:34;;;;;;;6.97;3.17;;;;;;;12.30;36.33;98556.78;4999531;28;20064;-79
2024/02/07 02:57:02;;;;;;;7.00;3.50;;;;;;;12.29;36.36;98563.81;5015715;28;20116;-80
2024/02/07 02:59:28;;;;;;;4.80;3.67;;;;;;;12.24;36.54;98563.41;5016077;28;20029;-80
2024/02/07 03:01:53;;;;;;;7.18;3.53;;;;;;;12.22;36.40;98556.63;5015041;28;20805;-79
2024/02/07 03:04:21;;;;;;;5.78;3.35;;;;;;;12.20;36.57;98548.09;5014863;28;20040;-79
2024/02/07 03:06:59;;;;;;;5.15;3.65;;;;;;;12.23;36.35;98564.34;5015507;28;20060;-78
2024/02/07 03:09:27;;;;;;;5.80;3.60;;;;;;;12.17;36.48;98554.41;5032048;28;20041;-79
2024/02/07 03:11:53;;;;;;;;;;;;;;;12.20;36.65;98575.06;5016179;28;20041;-79
2024/02/07 03:14:18;;;;;;;3.78;3.00;;;;;;;12.17;36.54;98572.72;5015211;28;19919;-80
2024/02/07 03:16:45;;;;;;;6.93;3.33;;;;;;;12.13;36.62;98580.00;4998489;28;20061;-80
2024/02/07 03:19:12;;;;;;;5.03;3.58;;;;;;;12.13;36.73;98580.00;4999220;28;20098;-79
2024/02/07 03:21:39;;;;;;;5.00;3.25;;;;;;;12.09;36.73;98575.16;5032657;28;20378;-79
2024/02/07 03:24:05;;;;;;;4.30;3.22;;;;;;;12.11;36.67;98575.84;5015359;28;20108;-79
2024/02/07 03:26:30;;;;;;;5.32;3.55;;;;;;;12.10;36.44;98582.06;5031538;28;20037;-80
2024/02/07 03:28:56;;;;;;;5.60;3.35;;;;;;;12.07;36.48;98575.31;5014916;28;20045;-79
2024/02/07 03:31:22;;;;;;;7.22;3.22;;;;;;;12.05;36.55;98574.63;5032146;28;20474;-80
2024/02/07 03:33:48;;;;;;;5.82;3.28;;;;;;;12.05;36.49;98581.59;5015806;28;20025;-79
2024/02/07 03:36:13;;;;;;;6.82;3.25;;;;;;;11.97;36.60;98568.34;5015297;28;20044;-79
2024/02/07 03:38:40;;;;;;;5.35;2.85;;;;;;;11.98;36.73;98570.84;5015212;28;20108;-79
2024/02/07 03:41:06;;;;;;;6.25;3.42;;;;;;;11.95;36.60;98563.25;5015316;28;20069;-79
2024/02/07 03:43:33;;;;;;;5.53;3.25;;;;;;;11.94;36.53;98567.66;5031421;28;20060;-81
2024/02/07 03:46:00;;;;;;;6.28;2.78;;;;;;;11.91;36.71;98565.28;4998854;28;20121;-80
2024/02/07 03:48:26;;;;;;;7.03;3.25;;;;;;;11.88;36.65;98565.53;4998521;28;20038;-79
2024/02/07 03:50:51;;;;;;;5.72;3.58;;;;;;;11.87;36.82;98563.06;4998628;28;20030;-80
2024/02/07 03:53:17;;;;;;;5.85;3.10;;;;;;;11.84;36.78;98548.44;5032725;28;20033;-80
2024/02/07 03:55:42;;;;;;;4.68;3.45;;;;;;;11.82;36.80;98545.13;5015442;28;20029;-80
2024/02/07 03:58:08;;;;;;;4.93;3.08;;;;;;;11.85;36.77;98555.34;5014866;28;20386;-79
2024/02/07 04:00:34;;;;;;;5.47;3.13;;;;;;;11.79;36.79;98552.41;5031078;28;20083;-79
2024/02/07 04:02:59;;;;;;;4.78;2.83;;;;;;;11.80;36.37;98560.13;5031190;28;20033;-79
2024/02/07 04:05:25;;;;;;;4.95;3.10;;;;;;;11.79;37.00;98568.91;5032342;28;20029;-79
2024/02/07 04:07:50;;;;;;;5.22;3.00;;;;;;;11.76;36.91;98556.09;5014734;28;20099;-79
2024/02/07 04:10:18;;;;;;;4.72;3.13;;;;;;;11.74;36.99;98561.47;5014566;28;20484;-79
2024/02/07 05:15:38;;;;;;;7.20;1.90;;;;;;;12.03;58.40;98542.50;5031295;28;20133;-86
2024/02/07 05:18:05;;;;;;;8.68;1.92;;;;;;;12.06;59.04;98550.09;5039479;28;20034;-85
2024/02/07 05:20:31;;;;;;;10.63;1.90;;;;;;;12.39;63.63;98552.56;5024290;28;20038;-78
2024/02/07 05:22:56;;;;;;;7.60;1.80;;;;;;;12.33;60.43;98551.28;5017677;28;20052;-80
2024/02/07 05:25:22;;;;;;;3.80;2.10;;;;;;;12.25;58.42;98557.19;5016665;28;20038;-79
2024/02/07 05:27:48;;;;;;;8.50;2.33;;;;;;;12.13;57.38;98556.47;4998159;28;20032;-78
2024/02/07 05:30:14;;;;;;;8.93;1.88;;;;;;;12.07;56.33;98566.63;5015030;28;20114;-79
2024/02/07 05:32:44;;;;;;;21.73;2.60;;;;;;;11.97;55.35;98569.22;5032633;28;20390;-78
2024/02/07 05:35:10;;;;;;;5.97;2.42;;;;;;;11.99;54.92;98575.13;5031636;28;20040;-80
2024/02/07 05:37:36;;;;;;;7.60;2.08;;;;;;;11.99;53.85;98563.84;5014636;28;20037;-78
2024/02/07 05:40:02;;;;;;;4.65;2.40;;;;;;;11.98;53.40;98562.19;4998419;28;20041;-78
2024/02/07 05:42:27;;;;;;;6.78;2.47;;;;;;;12.06;52.67;98572.81;5031380;28;20049;-79
2024/02/07 05:44:53;;;;;;;5.25;2.70;;;;;;;12.07;51.76;98572.69;5032685;28;20030;-79
2024/02/07 05:47:20;;;;;;;4.93;2.40;;;;;;;12.10;51.41;98574.22;5017561;28;20412;-79
2024/02/07 05:49:45;;;;;;;4.93;2.10;;;;;;;12.17;50.32;98566.66;5033182;28;20033;-79
2024/02/07 05:52:11;;;;;;;4.45;2.30;;;;;;;12.26;49.81;98571.94;5033124;28;20037;-79
2024/02/07 05:54:36;;;;;;;7.57;2.50;;;;;;;12.31;48.94;98574.16;5016881;28;20025;-78
2024/02/07 05:57:02;;;;;;;4.53;2.25;;;;;;;12.33;48.62;98574.03;5033233;28;20029;-79
2024/02/07 05:59:28;;;;;;;8.90;2.53;;;;;;;12.38;48.11;98570.06;5017015;28;20031;-78
2024/02/07 06:01:53;;;;;;;4.88;2.53;;;;;;;12.57;47.36;98576.31;5000250;28;20168;-78
2024/02/07 06:04:19;;;;;;;8.77;2.50;;;;;;;12.73;46.85;98586.25;5016596;28;20100;-80
2024/02/07 06:06:49;;;;;;;7.03;2.25;;;;;;;12.96;45.90;98582.44;4999994;28;20481;-77
2024/02/07 06:09:15;;;;;;;6.70;2.67;;;;;;;13.38;44.03;98589.28;5016994;28;20037;-78
2024/02/07 06:11:44;;;;;;;4.88;2.42;;;;;;;13.85;43.09;98584.13;5016251;28;20162;-75
2024/02/07 06:14:10;;;;;;;6.95;2.92;;;;;;;14.41;41.64;98584.19;5016645;28;20022;-75
2024/02/07 06:16:36;;;;;;;5.10;2.30;;;;;;;15.08;40.68;98591.84;5030928;28;20099;-77
2024/02/07 06:19:03;;;;;;;4.35;2.50;;;;;;;15.61;39.83;98595.44;5031479;28;20116;-75
2024/02/07 06:21:31;;;;;;;5.72;2.97;;;;;;;16.01;38.88;98583.59;5014796;28;20110;-75
2024/02/07 06:23:57;;;;;;;7.03;2.63;;;;;;;16.62;37.94;98577.28;5014974;28;20044;-75
2024/02/07 06:26:22;;;;;;;6.35;2.47;;;;;;;17.37;37.00;98570.34;5014766;28;20030;-76
2024/02/07 06:28:48;;;;;;;7.13;2.88;;;;;;;18.11;35.80;98580.84;4998454;28;20033;-76
2024/02/07 06:31:13;;;;;;;7.18;3.05;;;;;;;18.74;34.41;98578.31;5031958;28;20037;-77
2024/02/07 06:33:39;;;;;;;5.57;2.60;;;;;;;19.33;33.05;98575.16;4999427;28;20034;-77
2024/02/07 06:36:05;;;;;;;9.80;3.33;;;;;;;20.04;31.81;98582.81;5016073;28;20030;-78
2024/02/07 06:38:31;;;;;;;5.97;3.42;;;;;;;20.73;30.34;98579.88;5015968;28;20492;-77
2024/02/07 06:40:56;;;;;;;6.57;2.95;;;;;;;20.99;29.67;98575.88;5031727;28;20441;-78
2024/02/07 06:43:22;;;;;;;4.20;2.97;;;;;;;21.24;28.73;98567.53;5015532;28;20081;-75
2024/02/07 06:45:48;;;;;;;11.40;3.90;;;;;;;22.18;27.63;98567.22;5032253;28;20022;-77
2024/02/07 06:48:13;;;;;;;11.52;3.53;;;;;;;23.34;25.72;98556.81;5015604;28;20033;-78
2024/02/07 06:50:39;;;;;;;12.15;3.67;;;;;;;24.24;24.87;98565.13;5032165;28;20029;-76
2024/02/07 06:53:04;;;;;;;7.07;3.70;;;;;;;24.55;23.59;98555.59;5031899;28;20056;-77
2024/02/07 06:55:30;;;;;;;8.70;4.30;;;;;;;24.13;23.84;98565.78;5031785;28;20041;-77
2024/02/07 06:57:55;;;;;;;11.73;4.57;;;;;;;24.20;23.71;98569.25;5033576;28;20040;-77
2024/02/07 07:00:21;;;;;;;12.55;4.88;;;;;;;25.39;22.07;98574.25;5031813;28;20026;-76
2024/02/07 07:02:46;;;;;;;11.48;5.25;;;;;;;26.11;21.08;98577.34;5015654;28;20132;-76
2024/02/07 07:05:12;;;;;;;11.30;5.57;;;;;;;27.12;19.99;98581.47;5032637;28;20095;-80
2024/02/07 07:07:37;;;;;;;13.57;5.28;;;;;;;27.90;19.50;98582.34;4998830;28;20549;-78
2024/02/07 07:10:03;;;;;;;13.77;5.30;;;;;;;27.24;19.84;98572.41;4998741;28;20040;-77
2024/02/07 07:12:28;;;;;;;18.83;5.55;;;;;;;26.77;20.17;98574.13;5032190;28;20053;-79
2024/02/07 07:14:54;;;;;;;13.05;5.97;;;;;;;25.83;20.96;98565.25;5015328;28;20037;-78
2024/02/07 07:17:19;;;;;;;13.65;5.28;;;;;;;25.63;20.92;98569.94;5014813;28;20050;-78
2024/02/07 07:19:45;;;;;;;14.93;4.95;;;;;;;25.22;21.32;98576.59;5031193;28;20402;-79
2024/02/07 07:22:11;;;;;;;13.10;5.68;;;;;;;24.84;21.63;98580.94;5032747;28;20114;-78
2024/02/07 07:24:36;;;;;;;15.70;5.40;;;;;;;24.67;21.88;98577.09;5015607;28;20033;-77
2024/02/07 07:27:02;;;;;;;13.27;5.60;;;;;;;24.50;22.11;98574.91;5031785;28;20084;-78
2024/02/07 07:29:28;;;;;;;14.80;5.68;;;;;;;24.42;22.18;98580.47;5015094;28;20033;-78
2024/02/07 07:31:53;;;;;;;14.10;5.78;;;;;;;24.59;21.78;98588.88;4999149;28;20048;-78
2024/02/07 07:34:19;;;;;;;14.00;5.93;;;;;;;23.95;22.45;98585.09;5031589;28;20473;-78
2024/02/07 07:36:44;;;;;;;13.35;6.30;;;;;;;23.58;22.76;98598.03;5015346;28;20034;-77
2024/02/07 07:39:10;;;;;;;22.63;7.43;;;;;;;23.44;22.73;98579.34;5031183;28;20516;-79
2024/02/07 07:41:38;;;;;;;24.25;9.00;;;;;;;23.49;22.86;98573.41;5015116;28;20053;-77
2024/02/07 07:44:05;;;;;;;35.92;9.48;;;;;;;23.66;22.86;98582.63;4998782;28;20058;-78
2024/02/07 07:46:30;;;;;;;29.38;10.60;;;;;;;24.12;22.28;98574.81;5014705;28;20038;-77
2024/02/07 07:48:56;;;;;;;31.75;11.73;;;;;;;24.19;22.21;98575.59;5031437;28;20056;-77
2024/02/07 07:51:21;;;;;;;27.80;10.85;;;;;;;24.22;22.08;98577.06;5030962;28;20041;-79
2024/02/07 07:53:47;;;;;;;31.90;10.73;;;;;;;24.48;22.16;98560.97;5030978;28;20087;-76
2024/02/07 07:56:12;;;;;;;32.00;11.77;;;;;;;24.82;21.90;98558.97;5031975;28;20497;-79
2024/02/07 07:58:40;;;;;;;36.72;12.45;;;;;;;24.87;21.86;98555.66;5031201;28;20037;-79
2024/02/07 08:01:11;;;;;;;49.28;12.13;;;;;;;24.95;21.54;98544.72;5031116;28;20408;-78
2024/02/07 08:03:36;;;;;;;32.83;12.55;;;;;;;25.11;21.43;98551.41;5015303;28;20065;-78
2024/02/07 08:06:02;;;;;;;28.35;12.23;;;;;;;24.87;21.75;98544.97;5032280;28;20068;-78
2024/02/07 08:08:27;;;;;;;29.63;11.73;;;;;;;24.72;21.66;98540.75;5030997;28;20060;-79
2024/02/07 08:10:53;;;;;;;36.60;13.00;;;;;;;24.71;21.77;98533.78;5014764;28;20034;-78
2024/02/07 08:13:18;;;;;;;30.63;12.27;;;;;;;24.73;21.83;98533.56;5014758;28;20134;-77
2024/02/07 08:15:44;;;;;;;28.58;13.07;;;;;;;24.88;21.58;98539.44;5032183;28;20028;-76
2024/02/07 08:18:09;;;;;;;35.28;12.38;;;;;;;25.00;21.64;98539.56;5031376;28;20140;-76
2024/02/07 08:20:35;;;;;;;37.63;12.70;;;;;;;25.40;21.24;98531.28;5031221;28;20408;-77
2024/02/07 08:23:00;;;;;;;27.40;12.10;;;;;;;25.86;21.07;98541.78;4998113;28;20049;-79
2024/02/07 08:25:26;;;;;;;24.83;11.98;;;;;;;26.18;20.44;98539.81;5014590;28;20028;-79
2024/02/07 08:27:52;;;;;;;23.83;10.95;;;;;;;26.48;20.45;98550.56;5032370;28;20029;-76
2024/02/07 08:30:17;;;;;;;42.03;12.55;;;;;;;26.71;20.00;98543.75;5015217;28;20130;-80
2024/02/07 08:32:43;;;;;;;35.38;12.52;;;;;;;26.70;19.79;98542.09;5031174;28;20025;-78
2024/02/07 08:35:08;;;;;;;36.00;11.77;;;;;;;26.74;19.96;98545.13;5032275;28;20095;-78
2024/02/07 08:37:34;;;;;;;29.92;12.85;;;;;;;26.60;19.67;98539.09;5031047;28;20116;-78
2024/02/07 08:39:59;;;;;;;32.85;12.77;;;;;;;26.60;19.78;98550.66;4998373;28;20489;-77
2024/02/07 08:42:25;;;;;;;29.30;12.75;;;;;;;26.59;19.67;98546.31;5031916;28;20045;-78
2024/02/07 08:44:50;;;;;;;29.15;14.82;;;;;;;26.52;19.41;98543.75;5030838;28;20033;-77
2024/02/07 08:47:16;;;;;;;28.08;13.32;;;;;;;26.63;19.91;98550.19;5030815;28;20033;-77
2024/02/07 08:49:41;;;;;;;34.10;14.82;;;;;;;26.77;19.67;98555.38;5030914;28;20040;-77
2024/02/07 08:52:07;;;;;;;33.67;15.38;;;;;;;26.91;19.53;98548.81;5031791;28;20481;-76
2024/02/07 08:54:33;;;;;;;40.20;17.13;;;;;;;26.94;19.39;98536.84;5031032;28;20412;-77
2024/02/07 08:56:59;;;;;;;39.85;17.25;;;;;;;27.06;19.40;98535.00;5030940;28;20040;-77
2024/02/07 08:59:25;;;;;;;45.55;16.80;;;;;;;27.32;18.98;98536.47;5030964;28;20083;-78
2024/02/07 09:01:50;;;;;;;35.33;17.15;;;;;;;27.64;18.80;98544.19;5014328;28;20038;-76
2024/02/07 09:04:15;;;;;;;34.22;17.15;;;;;;;27.76;18.82;98546.88;5000256;28;20497;-76
2024/02/07 09:06:41;;;;;;;42.45;17.83;;;;;;;27.66;18.74;98547.47;5017726;28;20069;-78
2024/02/07 09:09:06;;;;;;;38.08;17.27;;;;;;;27.61;18.58;98536.59;5034197;28;20508;-76
2024/02/07 09:11:32;;;;;;;43.53;16.52;;;;;;;27.95;18.16;98544.91;5017963;28;20072;-78
2024/02/07 09:13:58;;;;;;;28.70;15.45;;;;;;;28.10;17.98;98544.41;5017958;28;20030;-79
2024/02/07 09:16:24;;;;;;;33.53;14.70;;;;;;;28.15;17.65;98542.66;5035342;28;20036;-77
2024/02/07 09:18:51;;;;;;;29.80;13.23;;;;;;;28.14;17.78;98540.22;5017857;28;20425;-77
2024/02/07 09:21:17;;;;;;;25.17;12.80;;;;;;;28.10;17.46;98536.38;5017840;28;20416;-77
2024/02/07 09:23:43;;;;;;;27.13;11.57;;;;;;;28.20;17.49;98535.78;5034063;28;20272;-76
2024/02/07 09:26:09;;;;;;;19.70;10.80;;;;;;;28.12;17.21;98539.66;5017098;28;20069;-77
2024/02/07 09:28:34;;;;;;;24.30;11.35;;;;;;;27.99;17.94;98527.31;5017169;28;20084;-78
2024/02/07 09:31:00;;;;;;;22.25;11.07;;;;;;;28.40;17.70;98520.09;5017406;28;20045;-77
2024/02/07 09:33:25;;;;;;;25.65;10.55;;;;;;;29.18;17.12;98512.38;5017247;28;20033;-77
2024/02/07 09:35:51;;;;;;;23.10;10.32;;;;;;;29.20;16.97;98518.34;5034954;28;20401;-78
2024/02/07 09:38:20;;;;;;;20.00;9.55;;;;;;;29.22;16.55;98510.88;5033752;28;20033;-77
2024/02/07 09:40:46;;;;;;;17.50;9.32;;;;;;;29.41;16.79;98511.44;5018197;28;20476;-77
2024/02/07 09:43:11;;;;;;;17.70;9.73;;;;;;;29.13;16.99;98493.50;5016952;28;20045;-77
2024/02/07 09:45:37;;;;;;;17.20;8.73;;;;;;;28.87;17.34;98495.72;5001136;28;20041;-78
2024/02/07 09:48:32;;;;;;;14.45;8.57;;;;;;;28.55;17.74;98499.97;5016979;28;20034;-77
2024/02/07 09:51:00;;;;;;;16.58;8.25;;;;;;;28.34;18.11;98492.34;5032838;28;20042;-78
2024/02/07 09:53:26;;;;;;;13.32;7.72;;;;;;;28.28;18.09;98493.28;5032320;28;20091;-78
2024/02/07 09:55:55;;;;;;;18.90;7.72;;;;;;;28.15;18.31;98483.63;5032052;28;20547;-77
2024/02/07 09:58:21;;;;;;;14.57;7.60;;;;;;;28.27;18.33;98477.41;5016221;28;20030;-77
2024/02/07 10:00:49;;;;;;;13.60;7.25;;;;;;;28.36;18.42;98467.94;5032107;28;20049;-77
2024/02/07 10:03:14;;;;;;;15.18;6.60;;;;;;;28.40;18.17;98465.56;5016207;28;20041;-77
2024/02/07 10:05:49;;;;;;;12.10;6.60;;;;;;;28.55;18.26;98465.88;4999255;28;20037;-76
2024/02/07 10:08:14;;;;;;;8.90;6.20;;;;;;;28.51;18.20;98467.38;4984276;28;20053;-78
2024/02/07 10:10:43;;;;;;;10.32;6.55;;;;;;;28.56;18.09;98453.25;5031648;28;20602;-76
2024/02/07 10:13:08;;;;;;;9.13;5.65;;;;;;;28.78;17.97;98459.59;5015999;28;20040;-76
2024/02/07 10:15:34;;;;;;;10.68;6.22;;;;;;;28.96;17.62;98455.84;4998659;28;20037;-77
2024/02/07 10:18:00;;;;;;;13.30;5.72;;;;;;;28.90;17.72;98443.41;5015120;28;20539;-77
2024/02/07 10:20:26;;;;;;;11.02;5.57;;;;;;;28.93;18.06;98442.09;5015317;28;20041;-77
2024/02/07 10:22:51;;;;;;;9.30;5.55;;;;;;;28.94;17.83;98433.81;5031931;28;20037;-77
2024/02/07 10:25:17;;;;;;;9.13;5.88;;;;;;;29.07;17.79;98429.97;5015014;28;20062;-80
2024/02/07 10:27:43;;;;;;;12.82;5.70;;;;;;;28.93;17.77;98431.38;5025331;28;20126;-77
2024/02/07 10:30:09;;;;;;;10.73;5.50;;;;;;;28.78;18.17;98418.47;5015980;28;20041;-79
2024/02/07 10:32:38;;;;;;;9.52;5.32;;;;;;;28.61;18.37;98411.22;5016062;28;20544;-77
2024/02/07 10:35:07;;;;;;;9.77;4.88;;;;;;;28.52;18.18;98413.47;5016332;28;20040;-77
2024/02/07 10:37:41;;;;;;;8.75;5.20;;;;;;;28.37;18.52;98404.31;5000200;28;20041;-78
2024/02/07 10:40:08;;;;;;;9.10;4.72;;;;;;;28.23;18.85;98401.13;5016193;28;20025;-77
2024/02/07 10:42:33;;;;;;;9.23;5.03;;;;;;;28.05;18.71;98402.13;5032160;28;20099;-77
2024/02/07 10:45:03;;;;;;;8.85;5.07;;;;;;;27.79;18.82;98393.56;5033927;28;20041;-77
2024/02/07 10:47:28;;;;;;;10.38;5.30;;;;;;;27.58;19.41;98393.13;5032146;28;20097;-77
2024/02/07 10:49:54;;;;;;;9.40;5.65;;;;;;;27.39;19.29;98397.00;5032751;28;20050;-78
2024/02/07 10:52:19;;;;;;;9.73;5.55;;;;;;;27.16;19.71;98387.91;5032042;28;20504;-77
2024/02/07 10:54:45;;;;;;;13.65;5.85;;;;;;;27.12;19.59;98373.34;5015338;28;20037;-78
2024/02/07 10:57:10;;;;;;;8.43;5.63;;;;;;;27.03;19.89;98380.09;4998912;28;20124;-79
2024/02/07 10:59:39;;;;;;;14.00;5.85;;;;;;;26.94;19.67;98371.59;5032161;28;20030;-78
2024/02/07 11:02:08;;;;;;;18.90;6.05;;;;;;;26.79;19.67;98373.91;5032084;28;20034;-79
2024/02/07 11:04:33;;;;;;;17.65;6.70;;;;;;;26.64;20.07;98364.44;5016022;28;20026;-78
2024/02/07 11:06:59;;;;;;;16.30;6.20;;;;;;;26.64;20.11;98358.25;4998864;28;20572;-76
2024/02/07 11:09:24;;;;;;;15.95;6.25;;;;;;;26.59;20.18;98356.28;5015571;28;20119;-77
2024/02/07 11:11:50;;;;;;;15.32;6.68;;;;;;;26.45;20.64;98358.34;5015173;28;20052;-79
2024/02/07 11:14:15;;;;;;;12.57;5.72;;;;;;;26.29;20.89;98343.75;5031414;28;20127;-79
2024/02/07 11:16:41;;;;;;;13.68;6.15;;;;;;;26.22;20.82;98344.91;4998935;28;20040;-77
2024/02/07 11:19:06;;;;;;;16.55;6.60;;;;;;;26.14;21.12;98341.53;5015064;28;20048;-78
2024/02/07 11:21:33;;;;;;;17.27;6.72;;;;;;;26.08;21.00;98333.59;5031672;28;20087;-77
2024/02/07 11:23:59;;;;;;;10.88;6.22;;;;;;;26.00;21.18;98329.38;5031398;28;20491;-78
2024/02/07 11:26:25;;;;;;;10.98;6.05;;;;;;;25.94;21.32;98323.03;4998649;28;20045;-77
2024/02/07 11:28:50;;;;;;;11.43;6.07;;;;;;;25.88;21.58;98323.13;5015051;28;20040;-78
2024/02/07 11:31:17;;;;;;;9.48;5.55;;;;;;;25.87;21.83;98318.81;5014739;28;20477;-78
2024/02/07 11:33:43;;;;;;;9.63;5.65;;;;;;;25.83;21.90;98315.78;5015031;28;20103;-78
2024/02/07 11:36:18;;;;;;;10.73;5.55;;;;;;;25.74;21.97;98301.91;5015379;28;20070;-77
2024/02/07 11:38:48;;;;;;;16.23;5.97;;;;;;;25.70;22.32;98299.94;4999500;28;20033;-76
2024/02/07 11:41:18;;;;;;;14.32;6.10;;;;;;;25.63;22.40;98305.34;5031581;28;20151;-76
2024/02/07 11:43:44;;;;;;;14.10;5.82;;;;;;;25.58;22.15;98303.34;5014738;28;20061;-78
2024/02/07 11:46:12;;;;;;;11.68;5.82;;;;;;;25.51;22.21;98307.97;5031423;28;20393;-77
2024/02/07 11:48:40;;;;;;;14.07;5.75;;;;;;;25.46;22.23;98303.31;5031074;28;20046;-78
2024/02/07 11:51:08;;;;;;;12.30;5.50;;;;;;;25.32;22.26;98296.50;5014820;28;20159;-77
2024/02/07 11:53:37;;;;;;;9.57;5.15;;;;;;;25.27;22.69;98305.13;4998141;28;20055;-76
2024/02/07 11:56:13;;;;;;;12.57;6.00;;;;;;;25.04;22.62;98292.44;4998071;28;20567;-78
2024/02/07 11:58:42;;;;;;;13.40;5.47;;;;;;;24.93;22.86;98296.66;5014926;28;20029;-77
2024/02/07 12:01:10;;;;;;;10.38;5.40;;;;;;;24.71;22.98;98287.44;4998353;28;20042;-78
2024/02/07 12:03:38;;;;;;;12.10;5.90;;;;;;;24.58;23.22;98290.22;4998408;28;20037;-78
2024/02/07 12:06:08;;;;;;;11.18;5.47;;;;;;;24.38;23.39;98277.81;5014169;28;20033;-77
2024/02/07 12:08:33;;;;;;;10.60;5.78;;;;;;;24.25;23.38;98273.41;5014977;28;20043;-76
2024/02/07 12:10:59;;;;;;;10.13;5.43;;;;;;;24.16;23.46;98280.88;5014756;28;20030;-78
2024/02/07 12:13:25;;;;;;;10.15;5.53;;;;;;;24.07;23.51;98276.00;5014761;28;20412;-78
2024/02/07 12:15:51;;;;;;;11.85;5.78;;;;;;;23.93;23.79;98278.75;5014582;28;20397;-78
2024/02/07 12:18:16;;;;;;;13.45;6.03;;;;;;;23.79;24.17;98271.84;5031884;28;20033;-78
2024/02/07 12:20:42;;;;;;;11.65;5.40;;;;;;;23.70;24.31;98268.59;5030574;28;20029;-77
2024/02/07 12:23:07;;;;;;;14.77;6.13;;;;;;;23.60;24.44;98257.59;5014051;28;20041;-78
2024/02/07 12:25:33;;;;;;;11.40;5.70;;;;;;;23.56;24.62;98259.03;5013699;28;20041;-77
2024/02/07 12:28:11;;;;;;;9.82;6.03;;;;;;;23.47;24.83;98250.50;5014174;28;20072;-78